sensor_id;sensor_type;location;lat;lon;timestamp;temperature;humidity
14031;DHT22;7090;49.436;8.490;2022-08-19T00:01:51;21.30;1.00
14031;DHT22;7090;49.436;8.490;2022-08-19T00:04:19;21.30;1.00
14031;DHT22;7090;49.436;8.490;2022-08-19T00:06:46;21.40;1.00
14031;DHT22;7090;49.436;8.490;2022-08-19T00:09:16;21.40;1.00
14031;DHT22;7090;49.436;8.490;2022-08-19T00:11:42;21.50;1.00
14031;DHT22;7090;49.436;8.490;2022-08-19T00:14:10;21.50;1.00
14031;DHT22;7090;49.436;8.490;2022-08-19T00:16:39;21.50;1.00
14031;DHT22;7090;49.436;8.490;2022-08-19T00:19:07;21.50;1.00
14031;DHT22;7090;49.436;8.490;2022-08-19T00:21:32;21.50;1.00
14031;DHT22;7090;49.436;8.490;2022-08-19T00:24:02;21.50;1.00
14031;DHT22;7090;49.436;8.490;2022-08-19T00:26:28;21.50;1.00
14031;DHT22;7090;49.436;8.490;2022-08-19T00:28:54;21.50;1.00
14031;DHT22;7090;49.436;8.490;2022-08-19T00:31:20;21.40;1.00
14031;DHT22;7090;49.436;8.490;2022-08-19T00:33:46;21.40;1.00
14031;DHT22;7090;49.436;8.490;2022-08-19T00:36:13;21.40;1.00
14031;DHT22;7090;49.436;8.490;2022-08-19T00:38:39;21.50;1.00
14031;DHT22;7090;49.436;8.490;2022-08-19T00:41:11;21.50;1.00
14031;DHT22;7090;49.436;8.490;2022-08-19T00:43:37;21.40;1.00
14031;DHT22;7090;49.436;8.490;2022-08-19T00:46:04;21.40;1.00
14031;DHT22;7090;49.436;8.490;2022-08-19T00:48:30;21.40;1.00
14031;DHT22;7090;49.436;8.490;2022-08-19T00:50:57;21.30;1.00
14031;DHT22;7090;49.436;8.490;2022-08-19T00:53:25;21.30;1.00
14031;DHT22;7090;49.436;8.490;2022-08-19T00:55:56;21.30;1.00
14031;DHT22;7090;49.436;8.490;2022-08-19T00:58:27;21.30;1.00
14031;DHT22;7090;49.436;8.490;2022-08-19T01:00:54;21.30;1.00
14031;DHT22;7090;49.436;8.490;2022-08-19T01:03:23;21.30;1.00
14031;DHT22;7090;49.436;8.490;2022-08-19T01:05:50;21.30;1.00
14031;DHT22;7090;49.436;8.490;2022-08-19T01:08:17;21.30;1.00
14031;DHT22;7090;49.436;8.490;2022-08-19T01:10:49;21.30;1.00
14031;DHT22;7090;49.436;8.490;2022-08-19T01:13:17;21.30;1.00
14031;DHT22;7090;49.436;8.490;2022-08-19T01:15:52;21.20;1.00
14031;DHT22;7090;49.436;8.490;2022-08-19T01:18:19;21.30;1.00
14031;DHT22;7090;49.436;8.490;2022-08-19T01:20:46;21.40;1.00
14031;DHT22;7090;49.436;8.490;2022-08-19T01:23:12;21.30;1.00
14031;DHT22;7090;49.436;8.490;2022-08-19T01:25:49;21.30;1.00
14031;DHT22;7090;49.436;8.490;2022-08-19T01:28:24;21.30;1.00
14031;DHT22;7090;49.436;8.490;2022-08-19T01:30:54;21.40;1.00
14031;DHT22;7090;49.436;8.490;2022-08-19T01:33:21;21.40;1.00
14031;DHT22;7090;49.436;8.490;2022-08-19T01:35:47;21.30;1.00
14031;DHT22;7090;49.436;8.490;2022-08-19T01:38:22;21.30;1.00
14031;DHT22;7090;49.436;8.490;2022-08-19T01:40:49;21.30;1.00
14031;DHT22;7090;49.436;8.490;2022-08-19T01:43:15;21.20;1.00
14031;DHT22;7090;49.436;8.490;2022-08-19T01:45:41;21.20;1.00
14031;DHT22;7090;49.436;8.490;2022-08-19T01:48:07;21.30;1.00
14031;DHT22;7090;49.436;8.490;2022-08-19T01:50:34;21.20;1.00
14031;DHT22;7090;49.436;8.490;2022-08-19T01:53:02;21.20;1.00
14031;DHT22;7090;49.436;8.490;2022-08-19T01:55:29;21.20;1.00
14031;DHT22;7090;49.436;8.490;2022-08-19T01:57:58;21.20;1.00
14031;DHT22;7090;49.436;8.490;2022-08-19T02:00:26;21.20;1.00
14031;DHT22;7090;49.436;8.490;2022-08-19T02:02:53;21.20;1.00
14031;DHT22;7090;49.436;8.490;2022-08-19T02:05:19;21.20;1.00
14031;DHT22;7090;49.436;8.490;2022-08-19T02:07:47;21.20;1.00
14031;DHT22;7090;49.436;8.490;2022-08-19T02:10:16;21.20;1.00
14031;DHT22;7090;49.436;8.490;2022-08-19T02:12:43;21.10;1.00
14031;DHT22;7090;49.436;8.490;2022-08-19T02:15:09;21.10;1.00
14031;DHT22;7090;49.436;8.490;2022-08-19T02:17:34;21.10;1.00
14031;DHT22;7090;49.436;8.490;2022-08-19T02:20:00;21.20;1.00
14031;DHT22;7090;49.436;8.490;2022-08-19T02:22:26;21.20;1.00
14031;DHT22;7090;49.436;8.490;2022-08-19T02:24:53;21.10;1.00
14031;DHT22;7090;49.436;8.490;2022-08-19T02:27:19;21.10;1.00
14031;DHT22;7090;49.436;8.490;2022-08-19T02:29:46;21.00;1.00
14031;DHT22;7090;49.436;8.490;2022-08-19T02:32:12;21.00;1.00
14031;DHT22;7090;49.436;8.490;2022-08-19T02:34:39;21.00;1.00
14031;DHT22;7090;49.436;8.490;2022-08-19T02:37:04;21.00;1.00
14031;DHT22;7090;49.436;8.490;2022-08-19T02:39:30;21.10;1.00
14031;DHT22;7090;49.436;8.490;2022-08-19T02:41:56;21.20;1.00
14031;DHT22;7090;49.436;8.490;2022-08-19T02:44:21;21.20;1.00
14031;DHT22;7090;49.436;8.490;2022-08-19T02:46:47;21.10;1.00
14031;DHT22;7090;49.436;8.490;2022-08-19T02:49:15;21.10;1.00
14031;DHT22;7090;49.436;8.490;2022-08-19T02:51:43;21.10;1.00
14031;DHT22;7090;49.436;8.490;2022-08-19T02:54:11;21.00;1.00
14031;DHT22;7090;49.436;8.490;2022-08-19T02:56:39;20.90;1.00
14031;DHT22;7090;49.436;8.490;2022-08-19T02:59:06;21.10;1.00
14031;DHT22;7090;49.436;8.490;2022-08-19T03:01:37;20.90;1.00
14031;DHT22;7090;49.436;8.490;2022-08-19T03:04:09;20.90;1.00
14031;DHT22;7090;49.436;8.490;2022-08-19T03:06:40;20.90;1.00
14031;DHT22;7090;49.436;8.490;2022-08-19T03:09:06;20.90;1.00
14031;DHT22;7090;49.436;8.490;2022-08-19T03:11:32;20.90;1.00
14031;DHT22;7090;49.436;8.490;2022-08-19T03:13:59;20.80;1.00
14031;DHT22;7090;49.436;8.490;2022-08-19T03:16:28;20.80;1.00
14031;DHT22;7090;49.436;8.490;2022-08-19T03:18:56;20.70;1.00
14031;DHT22;7090;49.436;8.490;2022-08-19T03:21:27;20.70;1.00
14031;DHT22;7090;49.436;8.490;2022-08-19T03:23:57;20.70;8.80
14031;DHT22;7090;49.436;8.490;2022-08-19T03:26:23;20.60;1.00
14031;DHT22;7090;49.436;8.490;2022-08-19T03:28:49;20.70;1.00
14031;DHT22;7090;49.436;8.490;2022-08-19T03:31:17;20.70;1.00
14031;DHT22;7090;49.436;8.490;2022-08-19T03:33:44;20.70;1.00
14031;DHT22;7090;49.436;8.490;2022-08-19T03:36:17;20.70;1.00
14031;DHT22;7090;49.436;8.490;2022-08-19T03:38:48;20.80;1.00
14031;DHT22;7090;49.436;8.490;2022-08-19T03:41:19;20.70;1.00
14031;DHT22;7090;49.436;8.490;2022-08-19T03:43:46;20.70;1.00
14031;DHT22;7090;49.436;8.490;2022-08-19T03:46:24;20.60;1.00
14031;DHT22;7090;49.436;8.490;2022-08-19T03:48:52;20.60;31.50
14031;DHT22;7090;49.436;8.490;2022-08-19T03:51:27;20.60;15.10
14031;DHT22;7090;49.436;8.490;2022-08-19T03:53:54;20.50;15.90
14031;DHT22;7090;49.436;8.490;2022-08-19T03:56:21;20.50;63.70
14031;DHT22;7090;49.436;8.490;2022-08-19T03:58:47;20.40;68.80
14031;DHT22;7090;49.436;8.490;2022-08-19T04:01:16;20.50;80.80
14031;DHT22;7090;49.436;8.490;2022-08-19T04:03:43;20.40;99.90
14031;DHT22;7090;49.436;8.490;2022-08-19T04:06:17;20.40;99.90
14031;DHT22;7090;49.436;8.490;2022-08-19T04:08:45;20.40;99.90
14031;DHT22;7090;49.436;8.490;2022-08-19T04:11:17;20.40;99.90
14031;DHT22;7090;49.436;8.490;2022-08-19T04:13:43;20.20;99.90
14031;DHT22;7090;49.436;8.490;2022-08-19T04:16:10;20.30;99.90
14031;DHT22;7090;49.436;8.490;2022-08-19T04:18:37;20.30;99.90
14031;DHT22;7090;49.436;8.490;2022-08-19T04:21:04;20.30;99.90
14031;DHT22;7090;49.436;8.490;2022-08-19T04:23:31;20.30;99.90
14031;DHT22;7090;49.436;8.490;2022-08-19T04:25:58;20.30;99.90
14031;DHT22;7090;49.436;8.490;2022-08-19T04:28:24;20.40;99.90
14031;DHT22;7090;49.436;8.490;2022-08-19T04:30:52;20.40;99.90
14031;DHT22;7090;49.436;8.490;2022-08-19T04:33:20;20.40;47.00
14031;DHT22;7090;49.436;8.490;2022-08-19T04:35:50;20.40;44.80
14031;DHT22;7090;49.436;8.490;2022-08-19T04:38:17;20.40;56.80
14031;DHT22;7090;49.436;8.490;2022-08-19T04:40:45;20.40;16.40
14031;DHT22;7090;49.436;8.490;2022-08-19T04:43:31;20.50;1.00
14031;DHT22;7090;49.436;8.490;2022-08-19T04:45:58;20.40;1.00
14031;DHT22;7090;49.436;8.490;2022-08-19T04:48:24;20.40;19.80
14031;DHT22;7090;49.436;8.490;2022-08-19T04:50:56;20.40;17.40
14031;DHT22;7090;49.436;8.490;2022-08-19T04:53:29;20.40;1.00
14031;DHT22;7090;49.436;8.490;2022-08-19T04:55:59;20.60;1.00
14031;DHT22;7090;49.436;8.490;2022-08-19T04:58:26;20.60;1.00
14031;DHT22;7090;49.436;8.490;2022-08-19T05:00:53;20.60;1.00
14031;DHT22;7090;49.436;8.490;2022-08-19T05:03:19;20.70;1.00
14031;DHT22;7090;49.436;8.490;2022-08-19T05:05:46;20.80;1.00
14031;DHT22;7090;49.436;8.490;2022-08-19T05:08:16;20.80;1.00
14031;DHT22;7090;49.436;8.490;2022-08-19T05:10:49;20.90;1.00
14031;DHT22;7090;49.436;8.490;2022-08-19T05:13:17;20.90;1.00
14031;DHT22;7090;49.436;8.490;2022-08-19T05:15:45;21.00;1.00
14031;DHT22;7090;49.436;8.490;2022-08-19T05:18:18;21.20;1.00
14031;DHT22;7090;49.436;8.490;2022-08-19T05:21:13;21.30;1.00
14031;DHT22;7090;49.436;8.490;2022-08-19T05:23:57;21.60;1.00
14031;DHT22;7090;49.436;8.490;2022-08-19T05:26:24;21.60;1.00
14031;DHT22;7090;49.436;8.490;2022-08-19T05:28:52;21.70;1.00
14031;DHT22;7090;49.436;8.490;2022-08-19T05:31:17;21.80;1.00
14031;DHT22;7090;49.436;8.490;2022-08-19T05:33:43;21.90;1.00
14031;DHT22;7090;49.436;8.490;2022-08-19T05:36:09;22.00;1.00
14031;DHT22;7090;49.436;8.490;2022-08-19T05:38:35;22.10;1.00
14031;DHT22;7090;49.436;8.490;2022-08-19T05:41:09;22.10;99.90
14031;DHT22;7090;49.436;8.490;2022-08-19T05:43:35;22.30;99.90
14031;DHT22;7090;49.436;8.490;2022-08-19T05:46:01;22.50;99.90
14031;DHT22;7090;49.436;8.490;2022-08-19T05:48:27;22.60;99.90
14031;DHT22;7090;49.436;8.490;2022-08-19T05:50:53;22.90;99.90
14031;DHT22;7090;49.436;8.490;2022-08-19T05:53:18;23.00;99.90
14031;DHT22;7090;49.436;8.490;2022-08-19T05:55:44;23.20;99.90
14031;DHT22;7090;49.436;8.490;2022-08-19T05:58:10;23.20;33.80
14031;DHT22;7090;49.436;8.490;2022-08-19T06:00:37;23.30;10.30
14031;DHT22;7090;49.436;8.490;2022-08-19T06:03:03;23.30;1.00
14031;DHT22;7090;49.436;8.490;2022-08-19T06:05:32;23.30;1.00
14031;DHT22;7090;49.436;8.490;2022-08-19T06:07:58;23.30;1.00
14031;DHT22;7090;49.436;8.490;2022-08-19T06:10:27;23.20;26.40
14031;DHT22;7090;49.436;8.490;2022-08-19T06:12:53;23.20;94.40
14031;DHT22;7090;49.436;8.490;2022-08-19T06:15:19;23.20;75.60
14031;DHT22;7090;49.436;8.490;2022-08-19T06:17:45;23.20;1.00
14031;DHT22;7090;49.436;8.490;2022-08-19T06:20:13;23.40;25.10
14031;DHT22;7090;49.436;8.490;2022-08-19T06:22:45;23.30;26.90
14031;DHT22;7090;49.436;8.490;2022-08-19T06:25:13;23.40;1.00
14031;DHT22;7090;49.436;8.490;2022-08-19T06:27:40;23.50;1.00
14031;DHT22;7090;49.436;8.490;2022-08-19T06:30:06;23.40;1.00
14031;DHT22;7090;49.436;8.490;2022-08-19T06:32:32;23.30;1.00
14031;DHT22;7090;49.436;8.490;2022-08-19T06:34:57;23.20;1.00
14031;DHT22;7090;49.436;8.490;2022-08-19T06:37:23;23.20;1.00
14031;DHT22;7090;49.436;8.490;2022-08-19T06:39:49;23.20;9.80
14031;DHT22;7090;49.436;8.490;2022-08-19T06:42:15;23.20;1.00
14031;DHT22;7090;49.436;8.490;2022-08-19T06:44:45;23.30;1.00
14031;DHT22;7090;49.436;8.490;2022-08-19T06:47:14;23.40;1.00
14031;DHT22;7090;49.436;8.490;2022-08-19T06:49:41;23.60;1.00
14031;DHT22;7090;49.436;8.490;2022-08-19T06:52:06;23.80;1.00
14031;DHT22;7090;49.436;8.490;2022-08-19T06:54:32;23.80;1.00
14031;DHT22;7090;49.436;8.490;2022-08-19T06:57:00;23.90;1.00
14031;DHT22;7090;49.436;8.490;2022-08-19T06:59:30;24.00;1.00
14031;DHT22;7090;49.436;8.490;2022-08-19T07:01:59;24.00;1.00
14031;DHT22;7090;49.436;8.490;2022-08-19T07:04:30;24.10;1.00
14031;DHT22;7090;49.436;8.490;2022-08-19T07:07:03;24.10;1.00
14031;DHT22;7090;49.436;8.490;2022-08-19T07:09:29;24.20;1.00
14031;DHT22;7090;49.436;8.490;2022-08-19T07:11:54;24.30;1.00
14031;DHT22;7090;49.436;8.490;2022-08-19T07:14:23;24.30;1.00
14031;DHT22;7090;49.436;8.490;2022-08-19T07:16:51;24.10;1.00
14031;DHT22;7090;49.436;8.490;2022-08-19T07:19:17;23.90;1.00
14031;DHT22;7090;49.436;8.490;2022-08-19T07:21:43;23.70;1.00
14031;DHT22;7090;49.436;8.490;2022-08-19T07:24:09;23.90;1.00
14031;DHT22;7090;49.436;8.490;2022-08-19T07:26:40;24.00;1.00
14031;DHT22;7090;49.436;8.490;2022-08-19T07:29:07;24.20;1.00
14031;DHT22;7090;49.436;8.490;2022-08-19T07:31:33;24.50;1.00
14031;DHT22;7090;49.436;8.490;2022-08-19T07:34:04;24.80;1.00
14031;DHT22;7090;49.436;8.490;2022-08-19T07:36:33;25.10;1.00
14031;DHT22;7090;49.436;8.490;2022-08-19T07:39:02;25.40;99.90
14031;DHT22;7090;49.436;8.490;2022-08-19T07:41:29;25.60;99.90
14031;DHT22;7090;49.436;8.490;2022-08-19T07:43:55;25.80;99.90
14031;DHT22;7090;49.436;8.490;2022-08-19T07:46:21;25.30;99.90
14031;DHT22;7090;49.436;8.490;2022-08-19T07:48:48;25.30;99.90
14031;DHT22;7090;49.436;8.490;2022-08-19T07:51:18;25.20;99.90
14031;DHT22;7090;49.436;8.490;2022-08-19T07:53:45;25.30;99.90
14031;DHT22;7090;49.436;8.490;2022-08-19T07:56:12;25.20;99.90
14031;DHT22;7090;49.436;8.490;2022-08-19T07:58:40;25.20;99.90
14031;DHT22;7090;49.436;8.490;2022-08-19T08:01:09;25.50;99.90
14031;DHT22;7090;49.436;8.490;2022-08-19T08:03:36;26.00;99.90
14031;DHT22;7090;49.436;8.490;2022-08-19T08:06:21;26.00;21.70
14031;DHT22;7090;49.436;8.490;2022-08-19T08:09:07;25.70;1.00
14031;DHT22;7090;49.436;8.490;2022-08-19T08:11:52;25.50;99.90
14031;DHT22;7090;49.436;8.490;2022-08-19T08:14:43;26.00;1.00
14031;DHT22;7090;49.436;8.490;2022-08-19T08:17:10;26.40;1.00
14031;DHT22;7090;49.436;8.490;2022-08-19T08:19:36;26.50;1.00
14031;DHT22;7090;49.436;8.490;2022-08-19T08:22:02;26.40;1.00
14031;DHT22;7090;49.436;8.490;2022-08-19T08:24:30;27.10;1.00
14031;DHT22;7090;49.436;8.490;2022-08-19T08:26:57;27.60;1.00
14031;DHT22;7090;49.436;8.490;2022-08-19T08:29:24;27.80;1.00
14031;DHT22;7090;49.436;8.490;2022-08-19T08:31:51;27.90;1.00
14031;DHT22;7090;49.436;8.490;2022-08-19T08:34:16;28.00;1.00
14031;DHT22;7090;49.436;8.490;2022-08-19T08:36:44;28.40;1.00
14031;DHT22;7090;49.436;8.490;2022-08-19T08:39:12;28.70;99.90
14031;DHT22;7090;49.436;8.490;2022-08-19T08:47:03;28.70;99.90
14031;DHT22;7090;49.436;8.490;2022-08-19T08:49:35;29.00;99.90
14031;DHT22;7090;49.436;8.490;2022-08-19T08:54:47;29.30;10.20
14031;DHT22;7090;49.436;8.490;2022-08-19T09:00:38;29.00;1.00
14031;DHT22;7090;49.436;8.490;2022-08-19T09:03:12;28.50;1.00
14031;DHT22;7090;49.436;8.490;2022-08-19T09:09:05;29.70;99.90
14031;DHT22;7090;49.436;8.490;2022-08-19T09:12:00;30.10;1.00
14031;DHT22;7090;49.436;8.490;2022-08-19T09:17:03;31.00;99.90
14031;DHT22;7090;49.436;8.490;2022-08-19T09:22:20;30.50;99.90
14031;DHT22;7090;49.436;8.490;2022-08-19T09:24:50;30.40;99.90
14031;DHT22;7090;49.436;8.490;2022-08-19T09:27:18;29.90;99.90
14031;DHT22;7090;49.436;8.490;2022-08-19T09:29:43;28.60;1.90
14031;DHT22;7090;49.436;8.490;2022-08-19T09:32:09;28.70;13.40
14031;DHT22;7090;49.436;8.490;2022-08-19T09:34:35;29.10;1.00
14031;DHT22;7090;49.436;8.490;2022-08-19T09:37:00;29.00;99.90
14031;DHT22;7090;49.436;8.490;2022-08-19T09:39:26;29.20;99.90
14031;DHT22;7090;49.436;8.490;2022-08-19T09:41:52;30.00;99.90
14031;DHT22;7090;49.436;8.490;2022-08-19T09:44:19;30.40;1.00
14031;DHT22;7090;49.436;8.490;2022-08-19T09:46:45;31.00;1.00
14031;DHT22;7090;49.436;8.490;2022-08-19T09:49:16;31.30;1.00
14031;DHT22;7090;49.436;8.490;2022-08-19T09:51:42;31.60;1.00
14031;DHT22;7090;49.436;8.490;2022-08-19T09:54:08;31.90;1.00
14031;DHT22;7090;49.436;8.490;2022-08-19T09:56:34;31.30;99.90
14031;DHT22;7090;49.436;8.490;2022-08-19T09:59:01;30.50;1.00
14031;DHT22;7090;49.436;8.490;2022-08-19T10:01:28;29.90;1.00
14031;DHT22;7090;49.436;8.490;2022-08-19T10:03:56;29.00;1.00
14031;DHT22;7090;49.436;8.490;2022-08-19T10:06:24;28.70;1.00
14031;DHT22;7090;49.436;8.490;2022-08-19T10:08:51;29.00;1.00
14031;DHT22;7090;49.436;8.490;2022-08-19T10:11:18;29.00;99.90
14031;DHT22;7090;49.436;8.490;2022-08-19T10:13:44;29.30;99.90
14031;DHT22;7090;49.436;8.490;2022-08-19T10:16:14;29.40;99.90
14031;DHT22;7090;49.436;8.490;2022-08-19T10:18:41;30.10;70.40
14031;DHT22;7090;49.436;8.490;2022-08-19T10:21:14;30.80;1.00
14031;DHT22;7090;49.436;8.490;2022-08-19T10:23:43;30.90;1.00
14031;DHT22;7090;49.436;8.490;2022-08-19T10:26:16;30.80;99.90
14031;DHT22;7090;49.436;8.490;2022-08-19T10:28:42;31.40;99.90
14031;DHT22;7090;49.436;8.490;2022-08-19T10:31:13;30.60;1.00
14031;DHT22;7090;49.436;8.490;2022-08-19T10:33:40;30.10;99.90
14031;DHT22;7090;49.436;8.490;2022-08-19T10:36:18;30.40;99.90
14031;DHT22;7090;49.436;8.490;2022-08-19T10:38:46;31.20;1.00
14031;DHT22;7090;49.436;8.490;2022-08-19T10:41:22;31.70;1.00
14031;DHT22;7090;49.436;8.490;2022-08-19T10:43:51;31.40;1.00
14031;DHT22;7090;49.436;8.490;2022-08-19T10:46:18;31.90;1.00
14031;DHT22;7090;49.436;8.490;2022-08-19T10:48:43;32.00;1.00
14031;DHT22;7090;49.436;8.490;2022-08-19T10:51:10;31.40;1.00
14031;DHT22;7090;49.436;8.490;2022-08-19T10:53:55;30.70;2.50
14031;DHT22;7090;49.436;8.490;2022-08-19T10:56:21;30.30;99.90
14031;DHT22;7090;49.436;8.490;2022-08-19T10:59:05;30.30;99.90
14031;DHT22;7090;49.436;8.490;2022-08-19T11:01:32;30.40;99.90
14031;DHT22;7090;49.436;8.490;2022-08-19T11:04:00;30.90;99.90
14031;DHT22;7090;49.436;8.490;2022-08-19T11:06:26;31.50;1.00
14031;DHT22;7090;49.436;8.490;2022-08-19T11:08:53;31.60;1.00
14031;DHT22;7090;49.436;8.490;2022-08-19T11:11:20;31.70;1.00
14031;DHT22;7090;49.436;8.490;2022-08-19T11:13:45;31.50;99.90
14031;DHT22;7090;49.436;8.490;2022-08-19T11:16:15;30.80;1.00
14031;DHT22;7090;49.436;8.490;2022-08-19T11:18:43;30.30;1.00
14031;DHT22;7090;49.436;8.490;2022-08-19T11:21:16;30.30;1.00
14031;DHT22;7090;49.436;8.490;2022-08-19T11:23:43;30.80;1.00
14031;DHT22;7090;49.436;8.490;2022-08-19T11:26:09;31.40;1.00
14031;DHT22;7090;49.436;8.490;2022-08-19T11:28:35;31.50;1.00
14031;DHT22;7090;49.436;8.490;2022-08-19T11:31:01;31.80;1.00
14031;DHT22;7090;49.436;8.490;2022-08-19T11:33:29;31.80;99.90
14031;DHT22;7090;49.436;8.490;2022-08-19T11:35:57;32.00;1.00
14031;DHT22;7090;49.436;8.490;2022-08-19T11:38:23;31.90;99.90
14031;DHT22;7090;49.436;8.490;2022-08-19T11:41:07;32.10;1.00
14031;DHT22;7090;49.436;8.490;2022-08-19T11:43:34;32.50;1.00
14031;DHT22;7090;49.436;8.490;2022-08-19T11:46:03;32.80;57.00
14031;DHT22;7090;49.436;8.490;2022-08-19T11:48:29;32.70;99.90
14031;DHT22;7090;49.436;8.490;2022-08-19T11:50:54;32.90;1.00
14031;DHT22;7090;49.436;8.490;2022-08-19T11:53:23;32.40;1.00
14031;DHT22;7090;49.436;8.490;2022-08-19T11:55:50;32.20;1.00
14031;DHT22;7090;49.436;8.490;2022-08-19T11:58:19;32.60;1.00
14031;DHT22;7090;49.436;8.490;2022-08-19T12:00:44;32.80;1.00
14031;DHT22;7090;49.436;8.490;2022-08-19T12:03:12;32.40;1.00
14031;DHT22;7090;49.436;8.490;2022-08-19T12:05:38;32.30;1.00
14031;DHT22;7090;49.436;8.490;2022-08-19T12:08:05;32.60;1.00
14031;DHT22;7090;49.436;8.490;2022-08-19T12:10:31;33.30;1.00
14031;DHT22;7090;49.436;8.490;2022-08-19T12:12:57;32.90;1.00
14031;DHT22;7090;49.436;8.490;2022-08-19T12:15:22;32.40;1.00
14031;DHT22;7090;49.436;8.490;2022-08-19T12:17:48;32.20;99.90
14031;DHT22;7090;49.436;8.490;2022-08-19T12:20:14;32.40;99.90
14031;DHT22;7090;49.436;8.490;2022-08-19T12:22:42;33.00;99.90
14031;DHT22;7090;49.436;8.490;2022-08-19T12:25:10;33.00;99.90
14031;DHT22;7090;49.436;8.490;2022-08-19T12:27:37;33.30;1.00
14031;DHT22;7090;49.436;8.490;2022-08-19T12:30:06;34.20;18.90
14031;DHT22;7090;49.436;8.490;2022-08-19T12:32:32;34.10;1.00
14031;DHT22;7090;49.436;8.490;2022-08-19T12:34:57;33.70;1.00
14031;DHT22;7090;49.436;8.490;2022-08-19T12:37:23;33.20;1.00
14031;DHT22;7090;49.436;8.490;2022-08-19T12:39:49;32.80;1.00
14031;DHT22;7090;49.436;8.490;2022-08-19T12:42:15;33.00;1.00
14031;DHT22;7090;49.436;8.490;2022-08-19T12:44:42;32.80;1.00
14031;DHT22;7090;49.436;8.490;2022-08-19T12:47:10;32.90;1.00
14031;DHT22;7090;49.436;8.490;2022-08-19T12:49:36;33.20;99.90
14031;DHT22;7090;49.436;8.490;2022-08-19T12:52:05;33.50;1.00
14031;DHT22;7090;49.436;8.490;2022-08-19T12:54:31;33.80;1.00
14031;DHT22;7090;49.436;8.490;2022-08-19T12:56:57;33.80;99.90
14031;DHT22;7090;49.436;8.490;2022-08-19T12:59:23;34.10;1.00
14031;DHT22;7090;49.436;8.490;2022-08-19T13:01:49;34.30;1.00
14031;DHT22;7090;49.436;8.490;2022-08-19T13:04:14;34.90;1.00
14031;DHT22;7090;49.436;8.490;2022-08-19T13:06:41;35.00;1.00
14031;DHT22;7090;49.436;8.490;2022-08-19T13:09:08;34.00;99.90
14031;DHT22;7090;49.436;8.490;2022-08-19T13:11:34;33.30;1.00
14031;DHT22;7090;49.436;8.490;2022-08-19T13:14:00;33.50;99.90
14031;DHT22;7090;49.436;8.490;2022-08-19T13:16:27;33.60;99.90
14031;DHT22;7090;49.436;8.490;2022-08-19T13:18:54;33.50;99.90
14031;DHT22;7090;49.436;8.490;2022-08-19T13:21:23;34.40;1.00
14031;DHT22;7090;49.436;8.490;2022-08-19T13:23:49;35.10;1.00
14031;DHT22;7090;49.436;8.490;2022-08-19T13:26:16;34.60;1.00
14031;DHT22;7090;49.436;8.490;2022-08-19T13:28:42;34.30;1.00
14031;DHT22;7090;49.436;8.490;2022-08-19T13:31:30;34.40;99.90
14031;DHT22;7090;49.436;8.490;2022-08-19T13:34:16;33.80;1.00
14031;DHT22;7090;49.436;8.490;2022-08-19T13:36:42;33.70;1.00
14031;DHT22;7090;49.436;8.490;2022-08-19T13:39:08;34.20;99.90
14031;DHT22;7090;49.436;8.490;2022-08-19T13:41:35;35.00;99.90
14031;DHT22;7090;49.436;8.490;2022-08-19T13:44:02;34.90;99.90
14031;DHT22;7090;49.436;8.490;2022-08-19T13:46:27;34.20;99.90
14031;DHT22;7090;49.436;8.490;2022-08-19T13:48:54;34.10;99.90
14031;DHT22;7090;49.436;8.490;2022-08-19T13:51:20;33.60;1.00
14031;DHT22;7090;49.436;8.490;2022-08-19T13:53:45;34.10;99.90
14031;DHT22;7090;49.436;8.490;2022-08-19T13:56:18;34.30;99.90
14031;DHT22;7090;49.436;8.490;2022-08-19T13:58:45;34.70;99.90
14031;DHT22;7090;49.436;8.490;2022-08-19T14:01:11;34.00;99.90
14031;DHT22;7090;49.436;8.490;2022-08-19T14:03:37;33.70;99.90
14031;DHT22;7090;49.436;8.490;2022-08-19T14:06:03;34.00;99.90
14031;DHT22;7090;49.436;8.490;2022-08-19T14:08:29;34.50;99.90
14031;DHT22;7090;49.436;8.490;2022-08-19T14:10:57;35.10;99.90
14031;DHT22;7090;49.436;8.490;2022-08-19T14:13:24;35.80;1.00
14031;DHT22;7090;49.436;8.490;2022-08-19T14:15:50;35.50;1.00
14031;DHT22;7090;49.436;8.490;2022-08-19T14:18:17;35.10;99.90
14031;DHT22;7090;49.436;8.490;2022-08-19T14:20:43;35.10;99.90
14031;DHT22;7090;49.436;8.490;2022-08-19T14:23:10;34.80;99.90
14031;DHT22;7090;49.436;8.490;2022-08-19T14:25:38;34.70;31.40
14031;DHT22;7090;49.436;8.490;2022-08-19T14:28:03;35.00;99.90
14031;DHT22;7090;49.436;8.490;2022-08-19T14:30:31;34.20;1.00
14031;DHT22;7090;49.436;8.490;2022-08-19T14:32:58;34.60;1.00
14031;DHT22;7090;49.436;8.490;2022-08-19T14:35:26;34.70;1.00
14031;DHT22;7090;49.436;8.490;2022-08-19T14:37:53;35.40;1.00
14031;DHT22;7090;49.436;8.490;2022-08-19T14:40:25;35.80;1.00
14031;DHT22;7090;49.436;8.490;2022-08-19T14:42:56;35.00;1.00
14031;DHT22;7090;49.436;8.490;2022-08-19T14:45:25;34.60;1.00
14031;DHT22;7090;49.436;8.490;2022-08-19T14:47:51;34.40;1.00
14031;DHT22;7090;49.436;8.490;2022-08-19T14:50:18;34.60;1.00
14031;DHT22;7090;49.436;8.490;2022-08-19T14:52:46;34.40;1.00
14031;DHT22;7090;49.436;8.490;2022-08-19T14:55:14;33.90;1.00
14031;DHT22;7090;49.436;8.490;2022-08-19T14:57:41;33.50;1.00
14031;DHT22;7090;49.436;8.490;2022-08-19T15:00:07;33.80;1.00
14031;DHT22;7090;49.436;8.490;2022-08-19T15:02:37;33.80;1.00
14031;DHT22;7090;49.436;8.490;2022-08-19T15:05:02;33.80;1.00
14031;DHT22;7090;49.436;8.490;2022-08-19T15:07:28;33.80;1.00
14031;DHT22;7090;49.436;8.490;2022-08-19T15:09:54;33.70;1.00
14031;DHT22;7090;49.436;8.490;2022-08-19T15:12:20;33.70;1.00
14031;DHT22;7090;49.436;8.490;2022-08-19T15:14:47;32.30;1.00
14031;DHT22;7090;49.436;8.490;2022-08-19T15:17:16;31.90;1.00
14031;DHT22;7090;49.436;8.490;2022-08-19T15:19:42;31.90;1.00
14031;DHT22;7090;49.436;8.490;2022-08-19T15:22:07;31.90;1.00
14031;DHT22;7090;49.436;8.490;2022-08-19T15:24:33;31.80;1.00
14031;DHT22;7090;49.436;8.490;2022-08-19T15:27:00;32.10;1.00
14031;DHT22;7090;49.436;8.490;2022-08-19T15:29:26;32.10;1.00
14031;DHT22;7090;49.436;8.490;2022-08-19T15:31:53;31.90;1.00
14031;DHT22;7090;49.436;8.490;2022-08-19T15:34:22;31.90;1.00
14031;DHT22;7090;49.436;8.490;2022-08-19T15:36:48;31.80;1.00
14031;DHT22;7090;49.436;8.490;2022-08-19T15:39:14;32.10;1.00
14031;DHT22;7090;49.436;8.490;2022-08-19T15:41:41;32.00;1.00
14031;DHT22;7090;49.436;8.490;2022-08-19T15:44:12;31.70;1.00
14031;DHT22;7090;49.436;8.490;2022-08-19T15:46:41;31.90;1.00
14031;DHT22;7090;49.436;8.490;2022-08-19T15:49:10;31.80;1.00
14031;DHT22;7090;49.436;8.490;2022-08-19T15:51:38;31.90;1.00
14031;DHT22;7090;49.436;8.490;2022-08-19T15:54:09;32.10;1.00
14031;DHT22;7090;49.436;8.490;2022-08-19T15:56:35;32.20;1.00
14031;DHT22;7090;49.436;8.490;2022-08-19T15:59:19;32.20;1.00
14031;DHT22;7090;49.436;8.490;2022-08-19T16:02:03;32.30;1.00
14031;DHT22;7090;49.436;8.490;2022-08-19T16:04:47;32.30;1.00
14031;DHT22;7090;49.436;8.490;2022-08-19T16:07:31;32.30;1.00
14031;DHT22;7090;49.436;8.490;2022-08-19T16:09:57;32.30;1.00
14031;DHT22;7090;49.436;8.490;2022-08-19T16:12:23;32.00;1.00
14031;DHT22;7090;49.436;8.490;2022-08-19T16:14:53;31.80;1.00
14031;DHT22;7090;49.436;8.490;2022-08-19T16:17:19;31.70;1.00
14031;DHT22;7090;49.436;8.490;2022-08-19T16:19:45;31.60;1.00
14031;DHT22;7090;49.436;8.490;2022-08-19T16:22:10;31.70;1.00
14031;DHT22;7090;49.436;8.490;2022-08-19T16:24:36;31.80;1.00